sensor_id;sensor_type;location;lat;lon;timestamp;temperature;humidity
53645;DHT22;39547;45.554;12.068;2024-01-30T00:00:48;1.70;91.20
53645;DHT22;39547;45.554;12.068;2024-01-30T00:06:51;1.60;91.10
53645;DHT22;39547;45.554;12.068;2024-01-30T00:12:54;1.50;91.10
53645;DHT22;39547;45.554;12.068;2024-01-30T00:18:57;1.50;91.10
53645;DHT22;39547;45.554;12.068;2024-01-30T00:24:58;1.50;91.10
53645;DHT22;39547;45.554;12.068;2024-01-30T00:31:03;1.40;91.20
53645;DHT22;39547;45.554;12.068;2024-01-30T00:37:04;1.30;91.20
53645;DHT22;39547;45.554;12.068;2024-01-30T00:43:07;1.30;91.30
53645;DHT22;39547;45.554;12.068;2024-01-30T00:49:09;1.30;91.20
53645;DHT22;39547;45.554;12.068;2024-01-30T00:55:12;1.30;91.20
53645;DHT22;39547;45.554;12.068;2024-01-30T01:01:14;1.20;91.10
53645;DHT22;39547;45.554;12.068;2024-01-30T01:07:16;1.20;91.00
53645;DHT22;39547;45.554;12.068;2024-01-30T01:13:18;1.20;90.80
53645;DHT22;39547;45.554;12.068;2024-01-30T01:19:20;1.00;90.70
53645;DHT22;39547;45.554;12.068;2024-01-30T01:25:22;1.00;90.90
53645;DHT22;39547;45.554;12.068;2024-01-30T01:31:24;0.90;90.90
53645;DHT22;39547;45.554;12.068;2024-01-30T01:37:27;0.90;91.00
53645;DHT22;39547;45.554;12.068;2024-01-30T01:43:29;0.80;90.90
53645;DHT22;39547;45.554;12.068;2024-01-30T01:49:31;0.70;91.00
53645;DHT22;39547;45.554;12.068;2024-01-30T01:55:33;0.70;90.90
53645;DHT22;39547;45.554;12.068;2024-01-30T02:01:37;0.60;91.00
53645;DHT22;39547;45.554;12.068;2024-01-30T02:07:39;0.60;91.00
53645;DHT22;39547;45.554;12.068;2024-01-30T02:13:44;0.50;91.10
53645;DHT22;39547;45.554;12.068;2024-01-30T02:19:47;0.50;91.20
53645;DHT22;39547;45.554;12.068;2024-01-30T02:25:48;0.40;91.20
53645;DHT22;39547;45.554;12.068;2024-01-30T02:31:50;0.40;91.40
53645;DHT22;39547;45.554;12.068;2024-01-30T02:37:53;0.40;91.40
53645;DHT22;39547;45.554;12.068;2024-01-30T02:43:54;0.30;91.30
53645;DHT22;39547;45.554;12.068;2024-01-30T02:49:58;0.30;91.40
53645;DHT22;39547;45.554;12.068;2024-01-30T02:56:03;0.20;91.20
53645;DHT22;39547;45.554;12.068;2024-01-30T03:02:04;0.20;90.90
53645;DHT22;39547;45.554;12.068;2024-01-30T03:08:06;0.20;91.10
53645;DHT22;39547;45.554;12.068;2024-01-30T03:14:08;0.20;91.10
53645;DHT22;39547;45.554;12.068;2024-01-30T03:20:12;0.10;91.10
53645;DHT22;39547;45.554;12.068;2024-01-30T03:26:14;0.10;91.20
53645;DHT22;39547;45.554;12.068;2024-01-30T03:32:18;0.10;91.30
53645;DHT22;39547;45.554;12.068;2024-01-30T03:38:19;0.10;91.30
53645;DHT22;39547;45.554;12.068;2024-01-30T03:44:21;0.20;91.00
53645;DHT22;39547;45.554;12.068;2024-01-30T03:50:25;0.10;91.10
53645;DHT22;39547;45.554;12.068;2024-01-30T03:56:27;0.10;91.00
53645;DHT22;39547;45.554;12.068;2024-01-30T04:02:29;0.00;91.00
53645;DHT22;39547;45.554;12.068;2024-01-30T04:08:31;0.00;91.00
53645;DHT22;39547;45.554;12.068;2024-01-30T04:14:32;0.00;91.20
53645;DHT22;39547;45.554;12.068;2024-01-30T04:20:36;0.00;91.20
53645;DHT22;39547;45.554;12.068;2024-01-30T04:26:37;0.00;91.20
53645;DHT22;39547;45.554;12.068;2024-01-30T04:32:44;0.00;91.00
53645;DHT22;39547;45.554;12.068;2024-01-30T04:38:45;0.00;90.90
53645;DHT22;39547;45.554;12.068;2024-01-30T04:44:48;-3276.70;91.10
53645;DHT22;39547;45.554;12.068;2024-01-30T04:50:50;-3276.70;91.20
53645;DHT22;39547;45.554;12.068;2024-01-30T04:56:52;-3276.70;91.30
53645;DHT22;39547;45.554;12.068;2024-01-30T05:02:57;-3276.70;91.20
53645;DHT22;39547;45.554;12.068;2024-01-30T05:09:01;-3276.70;91.30
53645;DHT22;39547;45.554;12.068;2024-01-30T05:15:03;-3276.70;90.60
53645;DHT22;39547;45.554;12.068;2024-01-30T05:21:05;-3276.60;90.60
53645;DHT22;39547;45.554;12.068;2024-01-30T05:27:07;-3276.60;91.10
53645;DHT22;39547;45.554;12.068;2024-01-30T05:33:08;-3276.60;91.00
53645;DHT22;39547;45.554;12.068;2024-01-30T05:39:12;-3276.60;91.20
53645;DHT22;39547;45.554;12.068;2024-01-30T05:45:16;-3276.60;91.20
53645;DHT22;39547;45.554;12.068;2024-01-30T05:51:17;-3276.60;91.00
53645;DHT22;39547;45.554;12.068;2024-01-30T05:57:19;-3276.50;90.70
53645;DHT22;39547;45.554;12.068;2024-01-30T06:03:21;-3276.50;90.40
53645;DHT22;39547;45.554;12.068;2024-01-30T06:09:25;-3276.40;90.60
53645;DHT22;39547;45.554;12.068;2024-01-30T06:15:27;-3276.40;90.90
53645;DHT22;39547;45.554;12.068;2024-01-30T06:21:32;-3276.30;90.40
53645;DHT22;39547;45.554;12.068;2024-01-30T06:27:38;-3276.20;90.60
53645;DHT22;39547;45.554;12.068;2024-01-30T06:33:39;-3276.30;91.10
53645;DHT22;39547;45.554;12.068;2024-01-30T06:39:43;-3276.30;91.20
53645;DHT22;39547;45.554;12.068;2024-01-30T06:45:45;-3276.40;91.00
53645;DHT22;39547;45.554;12.068;2024-01-30T06:51:47;-3276.30;91.10
53645;DHT22;39547;45.554;12.068;2024-01-30T06:57:50;-3276.40;91.20
53645;DHT22;39547;45.554;12.068;2024-01-30T07:03:51;-3276.50;91.20
53645;DHT22;39547;45.554;12.068;2024-01-30T07:09:53;-3276.40;90.80
53645;DHT22;39547;45.554;12.068;2024-01-30T07:15:58;-3276.50;90.90
53645;DHT22;39547;45.554;12.068;2024-01-30T07:22:01;-3276.50;91.60
53645;DHT22;39547;45.554;12.068;2024-01-30T07:28:02;-3276.70;91.60
53645;DHT22;39547;45.554;12.068;2024-01-30T07:34:04;0.00;91.90
53645;DHT22;39547;45.554;12.068;2024-01-30T07:40:07;0.10;91.90
53645;DHT22;39547;45.554;12.068;2024-01-30T07:46:08;0.10;91.80
53645;DHT22;39547;45.554;12.068;2024-01-30T07:52:10;0.20;92.00
53645;DHT22;39547;45.554;12.068;2024-01-30T07:58:12;0.30;92.00
53645;DHT22;39547;45.554;12.068;2024-01-30T08:04:13;0.40;92.10
53645;DHT22;39547;45.554;12.068;2024-01-30T08:10:15;0.50;91.90
53645;DHT22;39547;45.554;12.068;2024-01-30T08:16:19;0.60;91.70
53645;DHT22;39547;45.554;12.068;2024-01-30T08:22:21;0.70;91.90
53645;DHT22;39547;45.554;12.068;2024-01-30T08:28:23;0.80;91.90
53645;DHT22;39547;45.554;12.068;2024-01-30T08:34:25;1.00;92.40
53645;DHT22;39547;45.554;12.068;2024-01-30T08:40:28;1.20;92.30
53645;DHT22;39547;45.554;12.068;2024-01-30T08:46:31;1.30;92.30
53645;DHT22;39547;45.554;12.068;2024-01-30T08:52:40;1.50;92.60
53645;DHT22;39547;45.554;12.068;2024-01-30T08:59:16;1.70;92.90
53645;DHT22;39547;45.554;12.068;2024-01-30T09:05:18;1.90;93.00
53645;DHT22;39547;45.554;12.068;2024-01-30T09:11:32;2.00;92.80
53645;DHT22;39547;45.554;12.068;2024-01-30T09:31:55;2.60;91.90
53645;DHT22;39547;45.554;12.068;2024-01-30T09:37:57;2.80;92.20
53645;DHT22;39547;45.554;12.068;2024-01-30T09:44:01;2.90;92.10
53645;DHT22;39547;45.554;12.068;2024-01-30T09:50:09;3.10;92.30
53645;DHT22;39547;45.554;12.068;2024-01-30T09:56:17;3.30;92.30
53645;DHT22;39547;45.554;12.068;2024-01-30T10:02:21;3.60;92.90
53645;DHT22;39547;45.554;12.068;2024-01-30T10:08:29;3.80;92.80
53645;DHT22;39547;45.554;12.068;2024-01-30T10:14:32;4.00;92.90
53645;DHT22;39547;45.554;12.068;2024-01-30T10:20:34;4.20;91.40
53645;DHT22;39547;45.554;12.068;2024-01-30T10:26:38;4.50;92.30
53645;DHT22;39547;45.554;12.068;2024-01-30T10:32:39;4.60;92.30
53645;DHT22;39547;45.554;12.068;2024-01-30T10:38:42;4.80;91.90
53645;DHT22;39547;45.554;12.068;2024-01-30T10:45:07;5.00;92.20
53645;DHT22;39547;45.554;12.068;2024-01-30T10:51:14;5.20;91.80
53645;DHT22;39547;45.554;12.068;2024-01-30T10:57:17;5.50;91.30
53645;DHT22;39547;45.554;12.068;2024-01-30T11:03:19;5.70;91.10
53645;DHT22;39547;45.554;12.068;2024-01-30T11:09:22;5.90;91.30
53645;DHT22;39547;45.554;12.068;2024-01-30T11:15:24;6.10;91.00
53645;DHT22;39547;45.554;12.068;2024-01-30T11:21:25;6.30;90.70
53645;DHT22;39547;45.554;12.068;2024-01-30T11:27:27;6.40;89.20
53645;DHT22;39547;45.554;12.068;2024-01-30T11:33:29;6.50;89.30
53645;DHT22;39547;45.554;12.068;2024-01-30T11:39:32;6.60;90.00
53645;DHT22;39547;45.554;12.068;2024-01-30T11:45:35;6.80;89.50
53645;DHT22;39547;45.554;12.068;2024-01-30T11:51:40;6.90;90.20
53645;DHT22;39547;45.554;12.068;2024-01-30T11:57:43;7.20;90.40
53645;DHT22;39547;45.554;12.068;2024-01-30T12:03:51;7.40;88.80
53645;DHT22;39547;45.554;12.068;2024-01-30T12:09:53;7.50;87.50
53645;DHT22;39547;45.554;12.068;2024-01-30T12:15:56;7.70;89.50
53645;DHT22;39547;45.554;12.068;2024-01-30T12:21:58;7.90;89.50
53645;DHT22;39547;45.554;12.068;2024-01-30T12:28:00;8.10;89.40
53645;DHT22;39547;45.554;12.068;2024-01-30T12:34:07;8.20;89.60
53645;DHT22;39547;45.554;12.068;2024-01-30T12:40:15;8.40;89.50
53645;DHT22;39547;45.554;12.068;2024-01-30T12:46:28;8.50;89.40
53645;DHT22;39547;45.554;12.068;2024-01-30T12:52:30;8.70;84.80
53645;DHT22;39547;45.554;12.068;2024-01-30T12:58:32;8.80;88.50
53645;DHT22;39547;45.554;12.068;2024-01-30T13:04:34;8.90;88.90
53645;DHT22;39547;45.554;12.068;2024-01-30T13:10:36;9.10;88.20
53645;DHT22;39547;45.554;12.068;2024-01-30T13:16:38;9.20;88.90
53645;DHT22;39547;45.554;12.068;2024-01-30T13:22:39;9.30;88.20
53645;DHT22;39547;45.554;12.068;2024-01-30T13:28:42;9.40;88.00
53645;DHT22;39547;45.554;12.068;2024-01-30T13:34:44;9.40;87.40
53645;DHT22;39547;45.554;12.068;2024-01-30T13:40:46;9.50;88.40
53645;DHT22;39547;45.554;12.068;2024-01-30T13:46:48;9.50;88.60
53645;DHT22;39547;45.554;12.068;2024-01-30T13:52:50;9.60;88.80
53645;DHT22;39547;45.554;12.068;2024-01-30T13:58:54;9.60;88.40
53645;DHT22;39547;45.554;12.068;2024-01-30T14:04:57;9.60;88.60
53645;DHT22;39547;45.554;12.068;2024-01-30T14:11:02;9.60;89.00
53645;DHT22;39547;45.554;12.068;2024-01-30T14:17:04;9.50;88.80
53645;DHT22;39547;45.554;12.068;2024-01-30T14:23:08;9.40;88.90
53645;DHT22;39547;45.554;12.068;2024-01-30T14:29:09;9.40;88.00
53645;DHT22;39547;45.554;12.068;2024-01-30T14:35:11;9.30;88.80
53645;DHT22;39547;45.554;12.068;2024-01-30T14:41:14;9.20;88.80
53645;DHT22;39547;45.554;12.068;2024-01-30T14:47:17;9.20;89.20
53645;DHT22;39547;45.554;12.068;2024-01-30T14:53:20;9.20;89.10
53645;DHT22;39547;45.554;12.068;2024-01-30T14:59:25;9.20;89.50
53645;DHT22;39547;45.554;12.068;2024-01-30T15:05:27;9.20;89.40
53645;DHT22;39547;45.554;12.068;2024-01-30T15:11:29;9.20;89.50
53645;DHT22;39547;45.554;12.068;2024-01-30T15:17:33;9.10;89.30
53645;DHT22;39547;45.554;12.068;2024-01-30T15:23:35;9.00;89.60
53645;DHT22;39547;45.554;12.068;2024-01-30T15:29:36;8.80;89.90
53645;DHT22;39547;45.554;12.068;2024-01-30T15:35:39;8.70;90.10
53645;DHT22;39547;45.554;12.068;2024-01-30T15:41:41;8.50;90.30
53645;DHT22;39547;45.554;12.068;2024-01-30T15:47:43;8.30;90.50
53645;DHT22;39547;45.554;12.068;2024-01-30T15:53:45;8.20;90.60
53645;DHT22;39547;45.554;12.068;2024-01-30T15:59:46;8.00;90.80
53645;DHT22;39547;45.554;12.068;2024-01-30T16:05:48;7.80;90.90
53645;DHT22;39547;45.554;12.068;2024-01-30T16:11:50;7.60;90.90
53645;DHT22;39547;45.554;12.068;2024-01-30T16:17:51;7.30;91.10
53645;DHT22;39547;45.554;12.068;2024-01-30T16:23:53;7.10;91.30
53645;DHT22;39547;45.554;12.068;2024-01-30T16:29:55;6.90;91.40
53645;DHT22;39547;45.554;12.068;2024-01-30T16:35:57;6.70;91.60
53645;DHT22;39547;45.554;12.068;2024-01-30T16:41:58;6.50;91.80
53645;DHT22;39547;45.554;12.068;2024-01-30T16:48:01;6.30;91.80
53645;DHT22;39547;45.554;12.068;2024-01-30T16:54:03;6.20;92.00
53645;DHT22;39547;45.554;12.068;2024-01-30T17:00:08;6.10;92.00
53645;DHT22;39547;45.554;12.068;2024-01-30T17:06:13;6.00;92.00
53645;DHT22;39547;45.554;12.068;2024-01-30T17:12:15;5.90;92.10
53645;DHT22;39547;45.554;12.068;2024-01-30T17:18:17;5.70;92.10
53645;DHT22;39547;45.554;12.068;2024-01-30T17:24:20;5.70;92.20
53645;DHT22;39547;45.554;12.068;2024-01-30T17:30:24;5.70;92.30
53645;DHT22;39547;45.554;12.068;2024-01-30T17:36:25;5.70;92.30
53645;DHT22;39547;45.554;12.068;2024-01-30T17:42:28;5.60;92.40
53645;DHT22;39547;45.554;12.068;2024-01-30T17:48:30;5.60;92.20
53645;DHT22;39547;45.554;12.068;2024-01-30T17:54:31;5.50;92.20
53645;DHT22;39547;45.554;12.068;2024-01-30T18:00:33;5.40;92.20
53645;DHT22;39547;45.554;12.068;2024-01-30T18:06:39;5.30;92.20
53645;DHT22;39547;45.554;12.068;2024-01-30T18:12:41;5.20;92.00
53645;DHT22;39547;45.554;12.068;2024-01-30T18:18:43;5.20;92.20
53645;DHT22;39547;45.554;12.068;2024-01-30T18:24:45;5.20;92.20
53645;DHT22;39547;45.554;12.068;2024-01-30T18:30:47;5.00;92.20
53645;DHT22;39547;45.554;12.068;2024-01-30T18:36:49;4.90;92.20
53645;DHT22;39547;45.554;12.068;2024-01-30T18:42:51;4.90;92.20
53645;DHT22;39547;45.554;12.068;2024-01-30T18:48:52;4.80;92.20
53645;DHT22;39547;45.554;12.068;2024-01-30T18:54:54;4.80;92.20
53645;DHT22;39547;45.554;12.068;2024-01-30T19:00:57;4.70;92.20
53645;DHT22;39547;45.554;12.068;2024-01-30T19:06:58;4.70;92.30
53645;DHT22;39547;45.554;12.068;2024-01-30T19:13:00;4.60;92.20
53645;DHT22;39547;45.554;12.068;2024-01-30T19:19:02;4.50;92.20
53645;DHT22;39547;45.554;12.068;2024-01-30T19:25:08;4.40;92.20
53645;DHT22;39547;45.554;12.068;2024-01-30T19:31:10;4.40;92.20
53645;DHT22;39547;45.554;12.068;2024-01-30T19:37:12;4.30;92.10
53645;DHT22;39547;45.554;12.068;2024-01-30T19:43:14;4.20;92.00
53645;DHT22;39547;45.554;12.068;2024-01-30T19:49:16;4.20;92.00
53645;DHT22;39547;45.554;12.068;2024-01-30T19:55:17;4.10;91.90
53645;DHT22;39547;45.554;12.068;2024-01-30T20:01:20;4.00;91.70
53645;DHT22;39547;45.554;12.068;2024-01-30T20:07:22;3.90;91.70
53645;DHT22;39547;45.554;12.068;2024-01-30T20:13:24;3.90;91.70
53645;DHT22;39547;45.554;12.068;2024-01-30T20:19:27;3.80;91.60
53645;DHT22;39547;45.554;12.068;2024-01-30T20:25:28;3.70;91.50
53645;DHT22;39547;45.554;12.068;2024-01-30T20:31:30;3.70;91.40
53645;DHT22;39547;45.554;12.068;2024-01-30T20:37:37;3.70;91.40
53645;DHT22;39547;45.554;12.068;2024-01-30T20:43:41;3.60;91.40
53645;DHT22;39547;45.554;12.068;2024-01-30T20:49:43;3.50;91.50
53645;DHT22;39547;45.554;12.068;2024-01-30T20:55:46;3.50;91.60
53645;DHT22;39547;45.554;12.068;2024-01-30T21:01:49;3.50;91.50
53645;DHT22;39547;45.554;12.068;2024-01-30T21:07:52;3.40;91.40
53645;DHT22;39547;45.554;12.068;2024-01-30T21:13:58;3.40;91.40
53645;DHT22;39547;45.554;12.068;2024-01-30T21:19:59;3.30;91.30
53645;DHT22;39547;45.554;12.068;2024-01-30T21:26:05;3.20;91.40
53645;DHT22;39547;45.554;12.068;2024-01-30T21:32:11;3.20;91.40
53645;DHT22;39547;45.554;12.068;2024-01-30T21:38:13;3.20;91.50
53645;DHT22;39547;45.554;12.068;2024-01-30T21:44:16;3.20;91.50
53645;DHT22;39547;45.554;12.068;2024-01-30T21:50:18;3.20;91.50
53645;DHT22;39547;45.554;12.068;2024-01-30T21:56:20;3.10;91.50
53645;DHT22;39547;45.554;12.068;2024-01-30T22:02:22;3.10;91.50
53645;DHT22;39547;45.554;12.068;2024-01-30T22:08:23;3.00;91.50
53645;DHT22;39547;45.554;12.068;2024-01-30T22:14:25;3.00;91.40
53645;DHT22;39547;45.554;12.068;2024-01-30T22:20:27;3.00;91.30
53645;DHT22;39547;45.554;12.068;2024-01-30T22:26:28;2.90;91.20
53645;DHT22;39547;45.554;12.068;2024-01-30T22:32:30;2.90;91.20
53645;DHT22;39547;45.554;12.068;2024-01-30T22:38:32;2.80;91.30
53645;DHT22;39547;45.554;12.068;2024-01-30T22:44:33;2.80;91.20
53645;DHT22;39547;45.554;12.068;2024-01-30T22:50:35;2.70;91.20
53645;DHT22;39547;45.554;12.068;2024-01-30T22:56:37;2.70;91.30
53645;DHT22;39547;45.554;12.068;2024-01-30T23:02:38;2.70;91.40
53645;DHT22;39547;45.554;12.068;2024-01-30T23:08:41;2.70;91.30
53645;DHT22;39547;45.554;12.068;2024-01-30T23:14:43;2.80;91.30
53645;DHT22;39547;45.554;12.068;2024-01-30T23:20:46;2.70;91.30
53645;DHT22;39547;45.554;12.068;2024-01-30T23:26:47;2.70;91.20
53645;DHT22;39547;45.554;12.068;2024-01-30T23:32:49;2.70;91.10
53645;DHT22;39547;45.554;12.068;2024-01-30T23:38:51;2.60;91.20
53645;DHT22;39547;45.554;12.068;2024-01-30T23:44:52;2.60;91.20
53645;DHT22;39547;45.554;12.068;2024-01-30T23:50:55;2.60;91.30
53645;DHT22;39547;45.554;12.068;2024-01-30T23:56:57;2.60;91.30
